sensor_id;sensor_type;location;lat;lon;timestamp;P1;durP1;ratioP1;P2;durP2;ratioP2
81231;SDS011;70703;55.652;37.710;2023-07-08T00:00:07;61.75;;;45.83;;
81231;SDS011;70703;55.652;37.710;2023-07-08T00:00:22;61.03;;;45.53;;
81231;SDS011;70703;55.652;37.710;2023-07-08T00:00:36;60.30;;;45.00;;
81231;SDS011;70703;55.652;37.710;2023-07-08T00:00:47;61.13;;;45.40;;
81231;SDS011;70703;55.652;37.710;2023-07-08T00:00:58;59.55;;;44.03;;
81231;SDS011;70703;55.652;37.710;2023-07-08T00:01:11;59.58;;;43.30;;
81231;SDS011;70703;55.652;37.710;2023-07-08T00:01:23;60.78;;;43.33;;
81231;SDS011;70703;55.652;37.710;2023-07-08T00:01:36;61.70;;;43.97;;
81231;SDS011;70703;55.652;37.710;2023-07-08T00:01:48;62.08;;;44.55;;
81231;SDS011;70703;55.652;37.710;2023-07-08T00:02:00;60.65;;;43.75;;
81231;SDS011;70703;55.652;37.710;2023-07-08T00:02:13;59.83;;;42.80;;
81231;SDS011;70703;55.652;37.710;2023-07-08T00:02:24;60.08;;;42.83;;
81231;SDS011;70703;55.652;37.710;2023-07-08T00:02:36;60.58;;;43.50;;
81231;SDS011;70703;55.652;37.710;2023-07-08T00:02:48;59.17;;;42.97;;
81231;SDS011;70703;55.652;37.710;2023-07-08T00:03:01;59.55;;;43.50;;
81231;SDS011;70703;55.652;37.710;2023-07-08T00:03:14;60.90;;;43.65;;
81231;SDS011;70703;55.652;37.710;2023-07-08T00:03:27;59.97;;;42.95;;
81231;SDS011;70703;55.652;37.710;2023-07-08T00:03:39;59.00;;;42.97;;
81231;SDS011;70703;55.652;37.710;2023-07-08T00:03:51;58.90;;;43.00;;
81231;SDS011;70703;55.652;37.710;2023-07-08T00:04:03;59.22;;;42.60;;
81231;SDS011;70703;55.652;37.710;2023-07-08T00:04:16;59.40;;;42.50;;
81231;SDS011;70703;55.652;37.710;2023-07-08T00:04:29;59.47;;;41.83;;
81231;SDS011;70703;55.652;37.710;2023-07-08T00:04:41;60.13;;;42.10;;
81231;SDS011;70703;55.652;37.710;2023-07-08T00:04:53;59.67;;;42.15;;
81231;SDS011;70703;55.652;37.710;2023-07-08T00:05:05;58.95;;;41.88;;
81231;SDS011;70703;55.652;37.710;2023-07-08T00:05:18;60.03;;;42.47;;
81231;SDS011;70703;55.652;37.710;2023-07-08T00:05:31;61.47;;;43.63;;
81231;SDS011;70703;55.652;37.710;2023-07-08T00:05:44;60.72;;;43.50;;
81231;SDS011;70703;55.652;37.710;2023-07-08T00:06:01;61.55;;;43.08;;
81231;SDS011;70703;55.652;37.710;2023-07-08T00:06:15;60.60;;;42.75;;
81231;SDS011;70703;55.652;37.710;2023-07-08T00:06:29;58.38;;;42.50;;
81231;SDS011;70703;55.652;37.710;2023-07-08T00:06:41;59.92;;;42.40;;
81231;SDS011;70703;55.652;37.710;2023-07-08T00:06:53;60.92;;;42.28;;
81231;SDS011;70703;55.652;37.710;2023-07-08T00:07:05;61.17;;;43.03;;
81231;SDS011;70703;55.652;37.710;2023-07-08T00:07:21;59.38;;;43.35;;
81231;SDS011;70703;55.652;37.710;2023-07-08T00:07:34;59.78;;;43.17;;
81231;SDS011;70703;55.652;37.710;2023-07-08T00:07:45;59.40;;;42.97;;
81231;SDS011;70703;55.652;37.710;2023-07-08T00:07:57;59.78;;;43.45;;
81231;SDS011;70703;55.652;37.710;2023-07-08T00:08:11;62.72;;;44.70;;
81231;SDS011;70703;55.652;37.710;2023-07-08T00:08:23;65.88;;;46.55;;
81231;SDS011;70703;55.652;37.710;2023-07-08T00:08:35;67.13;;;48.55;;
81231;SDS011;70703;55.652;37.710;2023-07-08T00:08:48;67.78;;;50.40;;
81231;SDS011;70703;55.652;37.710;2023-07-08T00:09:00;68.78;;;51.42;;
81231;SDS011;70703;55.652;37.710;2023-07-08T00:09:12;69.88;;;52.40;;
81231;SDS011;70703;55.652;37.710;2023-07-08T00:09:23;73.10;;;52.33;;
81231;SDS011;70703;55.652;37.710;2023-07-08T00:09:35;74.32;;;52.13;;
81231;SDS011;70703;55.652;37.710;2023-07-08T00:09:46;74.18;;;52.20;;
81231;SDS011;70703;55.652;37.710;2023-07-08T00:10:00;73.63;;;53.00;;
81231;SDS011;70703;55.652;37.710;2023-07-08T00:10:15;75.70;;;53.33;;
81231;SDS011;70703;55.652;37.710;2023-07-08T00:10:28;76.43;;;53.25;;
81231;SDS011;70703;55.652;37.710;2023-07-08T00:10:39;75.18;;;52.88;;
81231;SDS011;70703;55.652;37.710;2023-07-08T00:10:52;75.65;;;53.38;;
81231;SDS011;70703;55.652;37.710;2023-07-08T00:11:07;75.97;;;52.85;;
81231;SDS011;70703;55.652;37.710;2023-07-08T00:11:20;78.47;;;53.03;;
81231;SDS011;70703;55.652;37.710;2023-07-08T00:11:32;77.57;;;52.28;;
81231;SDS011;70703;55.652;37.710;2023-07-08T00:11:45;75.05;;;52.17;;
81231;SDS011;70703;55.652;37.710;2023-07-08T00:11:56;74.30;;;51.28;;
81231;SDS011;70703;55.652;37.710;2023-07-08T00:12:08;70.68;;;50.30;;
81231;SDS011;70703;55.652;37.710;2023-07-08T00:12:23;70.00;;;50.47;;
81231;SDS011;70703;55.652;37.710;2023-07-08T00:12:35;67.90;;;49.40;;
81231;SDS011;70703;55.652;37.710;2023-07-08T00:12:47;65.38;;;47.75;;
81231;SDS011;70703;55.652;37.710;2023-07-08T00:13:05;65.05;;;45.78;;
81231;SDS011;70703;55.652;37.710;2023-07-08T00:13:19;64.78;;;44.45;;
81231;SDS011;70703;55.652;37.710;2023-07-08T00:13:30;62.72;;;44.47;;
81231;SDS011;70703;55.652;37.710;2023-07-08T00:13:43;62.80;;;44.85;;
81231;SDS011;70703;55.652;37.710;2023-07-08T00:13:55;63.60;;;45.20;;
81231;SDS011;70703;55.652;37.710;2023-07-08T00:14:07;63.70;;;45.17;;
81231;SDS011;70703;55.652;37.710;2023-07-08T00:14:19;62.72;;;45.05;;
81231;SDS011;70703;55.652;37.710;2023-07-08T00:14:30;61.42;;;44.83;;
81231;SDS011;70703;55.652;37.710;2023-07-08T00:14:42;62.13;;;44.95;;
81231;SDS011;70703;55.652;37.710;2023-07-08T00:14:54;63.20;;;44.80;;
81231;SDS011;70703;55.652;37.710;2023-07-08T00:15:08;63.50;;;44.30;;
81231;SDS011;70703;55.652;37.710;2023-07-08T00:15:21;62.83;;;43.95;;
81231;SDS011;70703;55.652;37.710;2023-07-08T00:15:35;60.85;;;44.42;;
81231;SDS011;70703;55.652;37.710;2023-07-08T00:15:49;58.47;;;43.55;;
81231;SDS011;70703;55.652;37.710;2023-07-08T00:16:00;59.55;;;43.55;;
81231;SDS011;70703;55.652;37.710;2023-07-08T00:16:14;61.35;;;44.08;;
81231;SDS011;70703;55.652;37.710;2023-07-08T00:16:28;62.83;;;45.25;;
81231;SDS011;70703;55.652;37.710;2023-07-08T00:16:41;63.42;;;45.53;;
81231;SDS011;70703;55.652;37.710;2023-07-08T00:16:52;64.03;;;46.08;;
81231;SDS011;70703;55.652;37.710;2023-07-08T00:17:08;62.75;;;45.58;;
81231;SDS011;70703;55.652;37.710;2023-07-08T00:17:22;59.90;;;44.20;;
81231;SDS011;70703;55.652;37.710;2023-07-08T00:17:34;63.25;;;44.83;;
81231;SDS011;70703;55.652;37.710;2023-07-08T00:17:46;64.85;;;45.75;;
81231;SDS011;70703;55.652;37.710;2023-07-08T00:17:57;65.15;;;45.38;;
81231;SDS011;70703;55.652;37.710;2023-07-08T00:18:12;69.28;;;46.35;;
81231;SDS011;70703;55.652;37.710;2023-07-08T00:18:27;69.72;;;46.45;;
81231;SDS011;70703;55.652;37.710;2023-07-08T00:18:39;66.15;;;45.95;;
81231;SDS011;70703;55.652;37.710;2023-07-08T00:18:52;65.68;;;46.47;;
81231;SDS011;70703;55.652;37.710;2023-07-08T00:19:07;65.65;;;46.65;;
81231;SDS011;70703;55.652;37.710;2023-07-08T00:19:19;68.18;;;46.83;;
81231;SDS011;70703;55.652;37.710;2023-07-08T00:19:34;70.13;;;46.92;;
81231;SDS011;70703;55.652;37.710;2023-07-08T00:19:46;70.22;;;46.70;;
81231;SDS011;70703;55.652;37.710;2023-07-08T00:19:58;68.72;;;47.30;;
81231;SDS011;70703;55.652;37.710;2023-07-08T00:20:12;70.32;;;46.97;;
81231;SDS011;70703;55.652;37.710;2023-07-08T00:20:30;68.50;;;46.15;;
81231;SDS011;70703;55.652;37.710;2023-07-08T00:20:44;67.55;;;45.90;;
81231;SDS011;70703;55.652;37.710;2023-07-08T00:20:58;67.25;;;46.55;;
81231;SDS011;70703;55.652;37.710;2023-07-08T00:21:11;66.93;;;47.08;;
81231;SDS011;70703;55.652;37.710;2023-07-08T00:21:26;68.30;;;47.75;;
81231;SDS011;70703;55.652;37.710;2023-07-08T00:21:39;70.70;;;48.17;;
81231;SDS011;70703;55.652;37.710;2023-07-08T00:21:50;73.03;;;48.58;;
81231;SDS011;70703;55.652;37.710;2023-07-08T00:22:07;69.80;;;48.80;;
81231;SDS011;70703;55.652;37.710;2023-07-08T00:22:21;68.55;;;48.08;;
81231;SDS011;70703;55.652;37.710;2023-07-08T00:22:35;69.15;;;47.92;;
81231;SDS011;70703;55.652;37.710;2023-07-08T00:22:46;71.88;;;49.20;;
81231;SDS011;70703;55.652;37.710;2023-07-08T00:23:00;72.10;;;48.90;;
81231;SDS011;70703;55.652;37.710;2023-07-08T00:23:13;70.53;;;47.85;;
81231;SDS011;70703;55.652;37.710;2023-07-08T00:23:25;69.80;;;47.88;;
81231;SDS011;70703;55.652;37.710;2023-07-08T00:23:38;69.75;;;48.47;;
81231;SDS011;70703;55.652;37.710;2023-07-08T00:23:50;67.57;;;47.67;;
81231;SDS011;70703;55.652;37.710;2023-07-08T00:24:02;66.03;;;46.60;;
81231;SDS011;70703;55.652;37.710;2023-07-08T00:24:14;67.53;;;47.55;;
81231;SDS011;70703;55.652;37.710;2023-07-08T00:24:26;67.47;;;47.58;;
81231;SDS011;70703;55.652;37.710;2023-07-08T00:24:39;69.72;;;48.22;;
81231;SDS011;70703;55.652;37.710;2023-07-08T00:24:50;70.28;;;47.92;;
81231;SDS011;70703;55.652;37.710;2023-07-08T00:25:04;69.40;;;47.58;;
81231;SDS011;70703;55.652;37.710;2023-07-08T00:25:17;67.28;;;47.80;;
81231;SDS011;70703;55.652;37.710;2023-07-08T00:25:31;72.93;;;49.42;;
81231;SDS011;70703;55.652;37.710;2023-07-08T00:25:43;72.80;;;48.55;;
81231;SDS011;70703;55.652;37.710;2023-07-08T00:25:55;70.00;;;47.95;;
81231;SDS011;70703;55.652;37.710;2023-07-08T00:26:09;67.75;;;46.55;;
81231;SDS011;70703;55.652;37.710;2023-07-08T00:26:25;69.68;;;46.08;;
81231;SDS011;70703;55.652;37.710;2023-07-08T00:26:38;70.53;;;46.25;;
81231;SDS011;70703;55.652;37.710;2023-07-08T00:26:49;71.40;;;45.67;;
81231;SDS011;70703;55.652;37.710;2023-07-08T00:27:01;71.30;;;46.05;;
81231;SDS011;70703;55.652;37.710;2023-07-08T00:27:13;68.35;;;45.72;;
81231;SDS011;70703;55.652;37.710;2023-07-08T00:27:26;66.50;;;45.55;;
81231;SDS011;70703;55.652;37.710;2023-07-08T00:27:38;62.17;;;44.58;;
81231;SDS011;70703;55.652;37.710;2023-07-08T00:27:49;61.58;;;45.00;;
81231;SDS011;70703;55.652;37.710;2023-07-08T00:28:00;61.88;;;45.75;;
81231;SDS011;70703;55.652;37.710;2023-07-08T00:28:14;62.78;;;46.35;;
81231;SDS011;70703;55.652;37.710;2023-07-08T00:28:26;62.20;;;45.05;;
81231;SDS011;70703;55.652;37.710;2023-07-08T00:28:38;63.90;;;44.63;;
81231;SDS011;70703;55.652;37.710;2023-07-08T00:29:32;62.97;;;44.05;;
81231;SDS011;70703;55.652;37.710;2023-07-08T00:29:44;61.75;;;43.10;;
81231;SDS011;70703;55.652;37.710;2023-07-08T00:29:56;62.30;;;43.63;;
81231;SDS011;70703;55.652;37.710;2023-07-08T00:30:33;61.20;;;42.55;;
81231;SDS011;70703;55.652;37.710;2023-07-08T00:30:44;61.17;;;42.33;;
81231;SDS011;70703;55.652;37.710;2023-07-08T00:30:56;59.83;;;42.15;;
81231;SDS011;70703;55.652;37.710;2023-07-08T00:31:09;58.92;;;41.70;;
81231;SDS011;70703;55.652;37.710;2023-07-08T00:31:22;57.65;;;41.50;;
81231;SDS011;70703;55.652;37.710;2023-07-08T00:31:36;58.97;;;41.45;;
81231;SDS011;70703;55.652;37.710;2023-07-08T00:31:48;60.17;;;41.00;;
81231;SDS011;70703;55.652;37.710;2023-07-08T00:32:00;59.42;;;40.40;;
81231;SDS011;70703;55.652;37.710;2023-07-08T00:32:14;56.10;;;39.50;;
81231;SDS011;70703;55.652;37.710;2023-07-08T00:32:27;55.20;;;39.30;;
81231;SDS011;70703;55.652;37.710;2023-07-08T00:32:38;57.53;;;39.15;;
81231;SDS011;70703;55.652;37.710;2023-07-08T00:32:52;58.72;;;39.85;;
81231;SDS011;70703;55.652;37.710;2023-07-08T00:33:06;58.40;;;40.03;;
81231;SDS011;70703;55.652;37.710;2023-07-08T00:33:18;56.10;;;38.92;;
81231;SDS011;70703;55.652;37.710;2023-07-08T00:33:29;53.83;;;38.08;;
81231;SDS011;70703;55.652;37.710;2023-07-08T00:33:41;52.30;;;37.58;;
81231;SDS011;70703;55.652;37.710;2023-07-08T00:33:54;53.92;;;37.10;;
81231;SDS011;70703;55.652;37.710;2023-07-08T00:34:06;53.75;;;37.05;;
81231;SDS011;70703;55.652;37.710;2023-07-08T00:34:17;51.78;;;36.75;;
81231;SDS011;70703;55.652;37.710;2023-07-08T00:34:29;50.50;;;36.80;;
81231;SDS011;70703;55.652;37.710;2023-07-08T00:34:42;51.20;;;36.80;;
81231;SDS011;70703;55.652;37.710;2023-07-08T00:34:55;53.83;;;37.40;;
81231;SDS011;70703;55.652;37.710;2023-07-08T00:35:07;55.40;;;37.72;;
81231;SDS011;70703;55.652;37.710;2023-07-08T00:35:18;54.72;;;38.08;;
81231;SDS011;70703;55.652;37.710;2023-07-08T00:35:31;51.50;;;37.38;;
81231;SDS011;70703;55.652;37.710;2023-07-08T00:35:45;50.95;;;36.47;;
81231;SDS011;70703;55.652;37.710;2023-07-08T00:35:57;52.38;;;36.70;;
81231;SDS011;70703;55.652;37.710;2023-07-08T00:36:08;52.30;;;36.55;;
81231;SDS011;70703;55.652;37.710;2023-07-08T00:36:22;51.83;;;36.63;;
81231;SDS011;70703;55.652;37.710;2023-07-08T00:36:37;53.58;;;36.78;;
81231;SDS011;70703;55.652;37.710;2023-07-08T00:36:48;56.63;;;36.17;;
81231;SDS011;70703;55.652;37.710;2023-07-08T00:37:00;55.20;;;36.28;;
81231;SDS011;70703;55.652;37.710;2023-07-08T00:37:14;51.50;;;35.72;;
81231;SDS011;70703;55.652;37.710;2023-07-08T00:37:25;50.35;;;35.60;;
81231;SDS011;70703;55.652;37.710;2023-07-08T00:37:40;49.25;;;35.58;;
81231;SDS011;70703;55.652;37.710;2023-07-08T00:37:52;47.67;;;34.58;;
81231;SDS011;70703;55.652;37.710;2023-07-08T00:38:09;49.17;;;34.65;;
81231;SDS011;70703;55.652;37.710;2023-07-08T00:38:26;48.90;;;33.97;;
81231;SDS011;70703;55.652;37.710;2023-07-08T00:38:38;48.30;;;33.47;;
81231;SDS011;70703;55.652;37.710;2023-07-08T00:38:55;48.15;;;33.38;;
81231;SDS011;70703;55.652;37.710;2023-07-08T00:39:08;48.47;;;33.53;;
81231;SDS011;70703;55.652;37.710;2023-07-08T00:39:25;48.05;;;34.13;;
81231;SDS011;70703;55.652;37.710;2023-07-08T00:39:37;48.40;;;33.47;;
81231;SDS011;70703;55.652;37.710;2023-07-08T00:39:48;48.30;;;32.75;;
81231;SDS011;70703;55.652;37.710;2023-07-08T00:39:59;47.75;;;33.15;;
81231;SDS011;70703;55.652;37.710;2023-07-08T00:40:15;45.10;;;33.38;;
81231;SDS011;70703;55.652;37.710;2023-07-08T00:40:29;44.40;;;32.60;;
81231;SDS011;70703;55.652;37.710;2023-07-08T00:40:50;45.22;;;32.50;;
81231;SDS011;70703;55.652;37.710;2023-07-08T00:41:06;47.65;;;32.05;;
81231;SDS011;70703;55.652;37.710;2023-07-08T00:41:22;49.00;;;32.55;;
81231;SDS011;70703;55.652;37.710;2023-07-08T00:41:40;48.33;;;32.80;;
81231;SDS011;70703;55.652;37.710;2023-07-08T00:41:55;47.05;;;32.72;;
81231;SDS011;70703;55.652;37.710;2023-07-08T00:42:12;47.53;;;32.67;;
81231;SDS011;70703;55.652;37.710;2023-07-08T00:42:26;48.03;;;33.25;;
81231;SDS011;70703;55.652;37.710;2023-07-08T00:42:38;46.55;;;32.83;;
81231;SDS011;70703;55.652;37.710;2023-07-08T00:42:50;45.97;;;32.33;;
81231;SDS011;70703;55.652;37.710;2023-07-08T00:43:03;46.22;;;32.45;;
81231;SDS011;70703;55.652;37.710;2023-07-08T00:43:18;47.72;;;32.65;;
81231;SDS011;70703;55.652;37.710;2023-07-08T00:43:35;48.30;;;32.70;;
81231;SDS011;70703;55.652;37.710;2023-07-08T00:43:50;46.90;;;32.90;;
81231;SDS011;70703;55.652;37.710;2023-07-08T00:44:04;46.42;;;32.25;;
81231;SDS011;70703;55.652;37.710;2023-07-08T00:44:16;46.60;;;32.33;;
81231;SDS011;70703;55.652;37.710;2023-07-08T00:44:27;46.42;;;32.58;;
81231;SDS011;70703;55.652;37.710;2023-07-08T00:44:39;45.47;;;32.90;;
81231;SDS011;70703;55.652;37.710;2023-07-08T00:44:51;46.80;;;32.70;;
81231;SDS011;70703;55.652;37.710;2023-07-08T00:45:04;46.00;;;32.15;;
81231;SDS011;70703;55.652;37.710;2023-07-08T00:45:37;43.40;;;31.20;;
81231;SDS011;70703;55.652;37.710;2023-07-08T00:45:53;44.50;;;31.65;;
81231;SDS011;70703;55.652;37.710;2023-07-08T00:46:18;46.30;;;31.80;;
81231;SDS011;70703;55.652;37.710;2023-07-08T00:46:38;44.35;;;32.08;;
81231;SDS011;70703;55.652;37.710;2023-07-08T00:47:02;47.28;;;31.85;;
81231;SDS011;70703;55.652;37.710;2023-07-08T00:47:16;47.53;;;31.48;;
81231;SDS011;70703;55.652;37.710;2023-07-08T00:47:30;46.08;;;31.08;;
81231;SDS011;70703;55.652;37.710;2023-07-08T00:47:41;46.00;;;31.33;;
81231;SDS011;70703;55.652;37.710;2023-07-08T00:47:55;46.63;;;31.48;;
81231;SDS011;70703;55.652;37.710;2023-07-08T00:48:13;46.33;;;31.27;;
81231;SDS011;70703;55.652;37.710;2023-07-08T00:48:32;43.85;;;30.88;;
81231;SDS011;70703;55.652;37.710;2023-07-08T00:48:45;42.63;;;30.77;;
81231;SDS011;70703;55.652;37.710;2023-07-08T00:49:00;42.30;;;30.23;;
81231;SDS011;70703;55.652;37.710;2023-07-08T00:49:26;41.58;;;29.50;;
81231;SDS011;70703;55.652;37.710;2023-07-08T00:49:46;43.75;;;30.10;;
81231;SDS011;70703;55.652;37.710;2023-07-08T00:50:04;39.40;;;28.50;;
81231;SDS011;70703;55.652;37.710;2023-07-08T00:50:19;38.50;;;27.30;;
81231;SDS011;70703;55.652;37.710;2023-07-08T00:50:31;38.55;;;27.95;;
81231;SDS011;70703;55.652;37.710;2023-07-08T00:50:43;39.60;;;28.90;;
81231;SDS011;70703;55.652;37.710;2023-07-08T00:50:54;41.17;;;29.38;;
81231;SDS011;70703;55.652;37.710;2023-07-08T00:51:07;42.35;;;28.38;;
81231;SDS011;70703;55.652;37.710;2023-07-08T00:51:21;42.80;;;28.90;;
81231;SDS011;70703;55.652;37.710;2023-07-08T00:51:34;42.38;;;29.52;;
81231;SDS011;70703;55.652;37.710;2023-07-08T00:51:49;42.80;;;29.80;;
81231;SDS011;70703;55.652;37.710;2023-07-08T00:52:33;42.08;;;29.27;;
81231;SDS011;70703;55.652;37.710;2023-07-08T00:52:45;42.70;;;29.55;;
81231;SDS011;70703;55.652;37.710;2023-07-08T00:53:33;41.50;;;30.00;;
81231;SDS011;70703;55.652;37.710;2023-07-08T00:53:46;42.67;;;30.15;;
81231;SDS011;70703;55.652;37.710;2023-07-08T00:53:58;41.95;;;30.13;;
81231;SDS011;70703;55.652;37.710;2023-07-08T00:54:10;41.22;;;29.98;;
81231;SDS011;70703;55.652;37.710;2023-07-08T00:54:23;40.47;;;29.83;;
81231;SDS011;70703;55.652;37.710;2023-07-08T00:54:37;41.33;;;29.70;;
81231;SDS011;70703;55.652;37.710;2023-07-08T00:54:50;41.85;;;30.48;;
81231;SDS011;70703;55.652;37.710;2023-07-08T00:55:04;42.00;;;30.23;;
81231;SDS011;70703;55.652;37.710;2023-07-08T00:55:22;43.38;;;29.55;;
81231;SDS011;70703;55.652;37.710;2023-07-08T00:55:34;41.95;;;29.85;;
81231;SDS011;70703;55.652;37.710;2023-07-08T00:55:46;40.78;;;29.75;;
81231;SDS011;70703;55.652;37.710;2023-07-08T00:55:59;40.33;;;29.13;;
81231;SDS011;70703;55.652;37.710;2023-07-08T00:56:16;39.78;;;28.70;;
81231;SDS011;70703;55.652;37.710;2023-07-08T00:56:32;40.60;;;28.77;;
81231;SDS011;70703;55.652;37.710;2023-07-08T00:56:47;42.00;;;29.00;;
81231;SDS011;70703;55.652;37.710;2023-07-08T00:57:01;40.20;;;28.80;;
81231;SDS011;70703;55.652;37.710;2023-07-08T00:57:15;38.08;;;28.20;;
81231;SDS011;70703;55.652;37.710;2023-07-08T00:57:29;38.70;;;28.08;;
81231;SDS011;70703;55.652;37.710;2023-07-08T00:57:44;42.60;;;28.83;;
81231;SDS011;70703;55.652;37.710;2023-07-08T00:57:57;45.05;;;29.40;;
81231;SDS011;70703;55.652;37.710;2023-07-08T00:58:10;43.17;;;29.10;;
81231;SDS011;70703;55.652;37.710;2023-07-08T00:58:21;43.17;;;28.90;;
81231;SDS011;70703;55.652;37.710;2023-07-08T00:58:38;42.50;;;29.27;;
81231;SDS011;70703;55.652;37.710;2023-07-08T00:58:54;41.53;;;29.17;;
81231;SDS011;70703;55.652;37.710;2023-07-08T00:59:09;42.53;;;28.50;;
81231;SDS011;70703;55.652;37.710;2023-07-08T00:59:26;42.03;;;28.60;;
81231;SDS011;70703;55.652;37.710;2023-07-08T00:59:41;39.15;;;28.67;;
81231;SDS011;70703;55.652;37.710;2023-07-08T00:59:58;41.20;;;28.85;;
81231;SDS011;70703;55.652;37.710;2023-07-08T01:00:17;40.72;;;28.70;;
81231;SDS011;70703;55.652;37.710;2023-07-08T01:00:31;41.47;;;28.95;;
81231;SDS011;70703;55.652;37.710;2023-07-08T01:00:47;42.25;;;28.65;;
81231;SDS011;70703;55.652;37.710;2023-07-08T01:01:03;40.90;;;28.17;;
81231;SDS011;70703;55.652;37.710;2023-07-08T01:01:17;40.22;;;28.05;;
81231;SDS011;70703;55.652;37.710;2023-07-08T01:01:32;39.90;;;28.10;;
81231;SDS011;70703;55.652;37.710;2023-07-08T01:01:53;38.78;;;27.38;;
81231;SDS011;70703;55.652;37.710;2023-07-08T01:02:07;38.65;;;27.70;;
81231;SDS011;70703;55.652;37.710;2023-07-08T01:02:22;39.25;;;28.02;;
81231;SDS011;70703;55.652;37.710;2023-07-08T01:02:38;38.45;;;27.80;;
81231;SDS011;70703;55.652;37.710;2023-07-08T01:02:54;38.60;;;27.35;;
81231;SDS011;70703;55.652;37.710;2023-07-08T01:03:08;40.58;;;28.20;;
81231;SDS011;70703;55.652;37.710;2023-07-08T01:03:20;41.42;;;28.10;;
81231;SDS011;70703;55.652;37.710;2023-07-08T01:03:33;41.58;;;27.90;;
81231;SDS011;70703;55.652;37.710;2023-07-08T01:03:52;41.03;;;27.75;;
81231;SDS011;70703;55.652;37.710;2023-07-08T01:04:07;40.90;;;27.85;;
81231;SDS011;70703;55.652;37.710;2023-07-08T01:04:22;41.60;;;28.13;;
81231;SDS011;70703;55.652;37.710;2023-07-08T01:04:41;41.70;;;28.20;;
81231;SDS011;70703;55.652;37.710;2023-07-08T01:05:01;41.22;;;28.33;;
81231;SDS011;70703;55.652;37.710;2023-07-08T01:05:18;39.00;;;28.23;;
81231;SDS011;70703;55.652;37.710;2023-07-08T01:05:34;39.88;;;27.75;;
81231;SDS011;70703;55.652;37.710;2023-07-08T01:05:48;39.63;;;27.05;;
81231;SDS011;70703;55.652;37.710;2023-07-08T01:06:02;40.83;;;27.38;;
81231;SDS011;70703;55.652;37.710;2023-07-08T01:06:17;40.33;;;28.13;;
81231;SDS011;70703;55.652;37.710;2023-07-08T01:06:31;38.72;;;28.13;;
81231;SDS011;70703;55.652;37.710;2023-07-08T01:06:46;37.63;;;27.15;;
81231;SDS011;70703;55.652;37.710;2023-07-08T01:07:03;36.47;;;26.58;;
81231;SDS011;70703;55.652;37.710;2023-07-08T01:07:19;35.85;;;26.48;;
81231;SDS011;70703;55.652;37.710;2023-07-08T01:07:32;35.83;;;26.15;;
81231;SDS011;70703;55.652;37.710;2023-07-08T01:07:45;36.67;;;26.58;;
81231;SDS011;70703;55.652;37.710;2023-07-08T01:08:03;36.40;;;26.48;;
81231;SDS011;70703;55.652;37.710;2023-07-08T01:08:16;36.03;;;26.05;;
81231;SDS011;70703;55.652;37.710;2023-07-08T01:08:28;37.67;;;25.83;;
81231;SDS011;70703;55.652;37.710;2023-07-08T01:08:41;39.17;;;25.92;;
81231;SDS011;70703;55.652;37.710;2023-07-08T01:08:55;38.83;;;26.02;;
81231;SDS011;70703;55.652;37.710;2023-07-08T01:09:08;37.10;;;26.05;;
81231;SDS011;70703;55.652;37.710;2023-07-08T01:09:21;37.38;;;26.17;;
81231;SDS011;70703;55.652;37.710;2023-07-08T01:09:36;38.13;;;26.88;;
81231;SDS011;70703;55.652;37.710;2023-07-08T01:09:54;40.85;;;26.98;;
81231;SDS011;70703;55.652;37.710;2023-07-08T01:10:11;38.75;;;26.23;;
81231;SDS011;70703;55.652;37.710;2023-07-08T01:10:31;39.17;;;26.50;;
81231;SDS011;70703;55.652;37.710;2023-07-08T01:10:48;38.13;;;26.95;;
81231;SDS011;70703;55.652;37.710;2023-07-08T01:11:03;38.35;;;26.90;;
81231;SDS011;70703;55.652;37.710;2023-07-08T01:11:15;38.40;;;27.13;;
81231;SDS011;70703;55.652;37.710;2023-07-08T01:11:27;37.92;;;27.17;;
81231;SDS011;70703;55.652;37.710;2023-07-08T01:11:40;36.95;;;26.20;;
81231;SDS011;70703;55.652;37.710;2023-07-08T01:11:53;38.38;;;25.33;;
81231;SDS011;70703;55.652;37.710;2023-07-08T01:12:08;38.17;;;25.55;;
81231;SDS011;70703;55.652;37.710;2023-07-08T01:12:24;36.42;;;25.45;;
81231;SDS011;70703;55.652;37.710;2023-07-08T01:12:41;37.63;;;25.13;;
81231;SDS011;70703;55.652;37.710;2023-07-08T01:12:57;38.67;;;25.65;;
81231;SDS011;70703;55.652;37.710;2023-07-08T01:13:14;37.78;;;26.02;;
81231;SDS011;70703;55.652;37.710;2023-07-08T01:13:27;38.30;;;26.58;;
81231;SDS011;70703;55.652;37.710;2023-07-08T01:13:43;39.00;;;26.83;;
81231;SDS011;70703;55.652;37.710;2023-07-08T01:13:56;37.67;;;26.23;;
81231;SDS011;70703;55.652;37.710;2023-07-08T01:14:09;37.30;;;26.00;;
81231;SDS011;70703;55.652;37.710;2023-07-08T01:14:26;36.38;;;26.10;;
81231;SDS011;70703;55.652;37.710;2023-07-08T01:14:42;36.60;;;26.23;;
81231;SDS011;70703;55.652;37.710;2023-07-08T01:14:55;38.15;;;26.13;;
81231;SDS011;70703;55.652;37.710;2023-07-08T01:15:11;38.35;;;25.98;;
81231;SDS011;70703;55.652;37.710;2023-07-08T01:15:27;38.35;;;26.15;;
81231;SDS011;70703;55.652;37.710;2023-07-08T01:15:44;37.90;;;26.55;;
81231;SDS011;70703;55.652;37.710;2023-07-08T01:15:59;38.75;;;26.08;;
81231;SDS011;70703;55.652;37.710;2023-07-08T01:16:11;38.38;;;26.38;;
81231;SDS011;70703;55.652;37.710;2023-07-08T01:16:28;37.53;;;26.63;;
81231;SDS011;70703;55.652;37.710;2023-07-08T01:16:40;38.50;;;26.30;;
81231;SDS011;70703;55.652;37.710;2023-07-08T01:16:52;37.78;;;25.77;;
81231;SDS011;70703;55.652;37.710;2023-07-08T01:17:03;38.45;;;26.50;;
81231;SDS011;70703;55.652;37.710;2023-07-08T01:17:14;37.35;;;26.13;;
81231;SDS011;70703;55.652;37.710;2023-07-08T01:17:25;37.08;;;25.85;;
81231;SDS011;70703;55.652;37.710;2023-07-08T01:17:43;37.17;;;25.73;;
81231;SDS011;70703;55.652;37.710;2023-07-08T01:17:56;37.83;;;25.70;;
81231;SDS011;70703;55.652;37.710;2023-07-08T01:18:08;36.97;;;25.35;;
81231;SDS011;70703;55.652;37.710;2023-07-08T01:18:21;34.40;;;24.67;;
81231;SDS011;70703;55.652;37.710;2023-07-08T01:18:35;35.45;;;25.08;;
81231;SDS011;70703;55.652;37.710;2023-07-08T01:18:47;35.53;;;25.10;;
81231;SDS011;70703;55.652;37.710;2023-07-08T01:19:03;36.60;;;24.48;;
81231;SDS011;70703;55.652;37.710;2023-07-08T01:19:19;35.35;;;23.50;;
81231;SDS011;70703;55.652;37.710;2023-07-08T01:19:43;33.45;;;22.70;;
81231;SDS011;70703;55.652;37.710;2023-07-08T01:19:55;33.50;;;22.48;;
81231;SDS011;70703;55.652;37.710;2023-07-08T01:20:08;33.25;;;22.60;;
81231;SDS011;70703;55.652;37.710;2023-07-08T01:20:23;34.08;;;22.10;;
81231;SDS011;70703;55.652;37.710;2023-07-08T01:20:35;34.88;;;21.92;;
81231;SDS011;70703;55.652;37.710;2023-07-08T01:20:48;34.53;;;21.60;;
81231;SDS011;70703;55.652;37.710;2023-07-08T01:21:01;33.60;;;21.20;;
81231;SDS011;70703;55.652;37.710;2023-07-08T01:21:28;32.08;;;21.30;;
81231;SDS011;70703;55.652;37.710;2023-07-08T01:21:46;33.45;;;20.95;;
81231;SDS011;70703;55.652;37.710;2023-07-08T01:21:58;30.33;;;20.70;;
81231;SDS011;70703;55.652;37.710;2023-07-08T01:22:11;31.10;;;20.75;;